createdAt,value
2024-04-30T00:00:16.064Z,95182.00
2024-04-30T00:01:16.191Z,95184.00
2024-04-30T00:02:16.271Z,95181.00
2024-04-30T00:03:16.371Z,95180.00
2024-04-30T00:04:16.497Z,95182.00
2024-04-30T00:05:16.573Z,95180.00
2024-04-30T00:06:16.691Z,95181.00
2024-04-30T00:07:16.752Z,95182.00
2024-04-30T00:08:16.850Z,95183.00
2024-04-30T00:09:17.035Z,95184.00
2024-04-30T00:10:17.095Z,95183.00
2024-04-30T00:11:17.172Z,95184.00
2024-04-30T00:12:17.255Z,95181.00
2024-04-30T00:13:17.431Z,95182.00
2024-04-30T00:14:17.463Z,95182.00
2024-04-30T00:15:18.186Z,95184.00
2024-04-30T00:16:17.675Z,95179.00
2024-04-30T00:17:17.738Z,95180.00
2024-04-30T00:18:17.837Z,95181.00
2024-04-30T00:19:18.007Z,95183.00
2024-04-30T00:20:18.067Z,95182.00
2024-04-30T00:21:18.130Z,95182.00
2024-04-30T00:22:18.282Z,95179.00
2024-04-30T00:23:18.348Z,95177.00
2024-04-30T00:24:18.431Z,95176.00
2024-04-30T00:25:18.600Z,95177.00
2024-04-30T00:26:18.620Z,95179.00
2024-04-30T00:27:18.799Z,95178.00
2024-04-30T00:28:18.929Z,95180.00
2024-04-30T00:29:18.946Z,95180.00
2024-04-30T00:30:19.043Z,95176.00
2024-04-30T00:31:19.190Z,95178.00
2024-04-30T00:32:19.324Z,95179.00
2024-04-30T00:33:19.441Z,95182.00
2024-04-30T00:34:19.490Z,95178.00
2024-04-30T00:35:19.531Z,95181.00
2024-04-30T00:36:19.666Z,95185.00
2024-04-30T00:37:19.804Z,95185.00
2024-04-30T00:38:19.888Z,95186.00
2024-04-30T00:39:19.971Z,95182.00
2024-04-30T00:40:20.120Z,95182.00
2024-04-30T00:41:20.136Z,95181.00
2024-04-30T00:42:20.249Z,95180.00
2024-04-30T00:43:20.369Z,95178.00
2024-04-30T00:44:20.491Z,95178.00
2024-04-30T00:45:20.546Z,95176.00
2024-04-30T00:46:20.679Z,95179.00
2024-04-30T00:47:20.800Z,95177.00
2024-04-30T00:48:21.789Z,95182.00
2024-04-30T00:49:20.936Z,95188.00
2024-04-30T00:50:20.998Z,95190.00
2024-04-30T00:51:21.006Z,95186.00
2024-04-30T00:52:21.100Z,95187.00
2024-04-30T00:53:21.109Z,95187.00
2024-04-30T00:54:21.155Z,95187.00
2024-04-30T00:55:21.236Z,95188.00
2024-04-30T00:56:21.304Z,95192.00
2024-04-30T00:57:21.400Z,95191.00
2024-04-30T00:58:21.572Z,95191.00
2024-04-30T00:59:21.658Z,95190.00
2024-04-30T01:00:21.697Z,95190.00
2024-04-30T01:01:21.856Z,95190.00
2024-04-30T01:02:21.931Z,95192.00
2024-04-30T01:03:22.070Z,95191.00
2024-04-30T01:04:22.130Z,95192.00
2024-04-30T01:05:22.230Z,95192.00
2024-04-30T01:06:22.312Z,95190.00
2024-04-30T01:07:22.393Z,95193.00
2024-04-30T01:08:22.552Z,95191.00
2024-04-30T01:09:22.616Z,95189.00
2024-04-30T01:10:22.757Z,95190.00
2024-04-30T01:11:22.856Z,95187.00
2024-04-30T01:12:22.969Z,95185.00
2024-04-30T01:13:23.097Z,95183.00
2024-04-30T01:14:23.151Z,95184.00
2024-04-30T01:15:23.221Z,95182.00
2024-04-30T01:16:23.363Z,95181.00
2024-04-30T01:17:23.505Z,95181.00
2024-04-30T01:18:24.006Z,95181.00
2024-04-30T01:19:23.631Z,95180.00
2024-04-30T01:20:23.617Z,95180.00
2024-04-30T01:21:23.669Z,95179.00
2024-04-30T01:22:23.746Z,95179.00
2024-04-30T01:23:23.802Z,95179.00
2024-04-30T01:24:23.814Z,95180.00
2024-04-30T01:25:23.940Z,95178.00
2024-04-30T01:26:24.092Z,95178.00
2024-04-30T01:27:24.033Z,95179.00
2024-04-30T01:28:24.045Z,95178.00
2024-04-30T01:29:24.075Z,95179.00
2024-04-30T01:30:24.114Z,95178.00
2024-04-30T01:31:24.175Z,95178.00
2024-04-30T01:32:24.247Z,95178.00
2024-04-30T01:33:24.327Z,95178.00
2024-04-30T01:34:24.370Z,95178.00
2024-04-30T01:35:24.386Z,95176.00
2024-04-30T01:36:24.496Z,95176.00
2024-04-30T01:37:24.657Z,95175.00
2024-04-30T01:38:24.747Z,95174.00
2024-04-30T01:39:24.838Z,95176.00
2024-04-30T01:40:24.917Z,95176.00
2024-04-30T01:41:25.218Z,95176.00
2024-04-30T01:42:25.114Z,95178.00
2024-04-30T01:43:25.194Z,95177.00
2024-04-30T01:44:25.296Z,95179.00
2024-04-30T01:45:25.411Z,95181.00
2024-04-30T01:46:25.549Z,95182.00
2024-04-30T01:47:25.634Z,95185.00
2024-04-30T01:48:25.813Z,95184.00
2024-04-30T01:49:25.859Z,95181.00
2024-04-30T01:50:25.951Z,95180.00
2024-04-30T01:51:26.034Z,95178.00
2024-04-30T01:52:26.219Z,95176.00
2024-04-30T01:53:26.206Z,95172.00
2024-04-30T01:54:26.318Z,95174.00
2024-04-30T01:55:26.463Z,95176.00
2024-04-30T01:56:26.539Z,95173.00
2024-04-30T01:57:26.632Z,95171.00
2024-04-30T01:58:26.771Z,95169.00
2024-04-30T01:59:26.837Z,95168.00
2024-04-30T02:00:26.931Z,95167.00
2024-04-30T02:01:27.084Z,95163.00
2024-04-30T02:02:27.143Z,95163.00
2024-04-30T02:03:27.290Z,95165.00
2024-04-30T02:04:28.806Z,95163.00
2024-04-30T02:05:28.452Z,95162.00
2024-04-30T02:06:27.299Z,95162.00
2024-04-30T02:07:27.349Z,95159.00
2024-04-30T02:08:27.318Z,95159.00
2024-04-30T02:09:27.324Z,95157.00
2024-04-30T02:10:27.393Z,95160.00
2024-04-30T02:11:27.399Z,95157.00
2024-04-30T02:12:27.356Z,95156.00
2024-04-30T02:13:27.430Z,95153.00
2024-04-30T02:14:27.430Z,95153.00
2024-04-30T02:15:27.477Z,95153.00
2024-04-30T02:16:27.777Z,95155.00
2024-04-30T02:17:27.763Z,95154.00
2024-04-30T02:18:27.835Z,95158.00
2024-04-30T02:19:27.939Z,95158.00
2024-04-30T02:20:27.992Z,95160.00
2024-04-30T02:21:28.137Z,95158.00
2024-04-30T02:22:28.231Z,95161.00
2024-04-30T02:23:28.322Z,95163.00
2024-04-30T02:24:28.415Z,95166.00
2024-04-30T02:25:28.617Z,95168.00
2024-04-30T02:26:28.627Z,95171.00
2024-04-30T02:27:28.711Z,95172.00
2024-04-30T02:28:28.897Z,95174.00
2024-04-30T02:29:28.901Z,95176.00
2024-04-30T02:30:29.054Z,95173.00
2024-04-30T02:31:29.198Z,95174.00
2024-04-30T02:32:29.250Z,95176.00
2024-04-30T02:33:29.365Z,95176.00
2024-04-30T02:34:29.476Z,95177.00
2024-04-30T02:35:29.517Z,95174.00
2024-04-30T02:36:29.621Z,95174.00
2024-04-30T02:37:29.793Z,95173.00
2024-04-30T02:38:29.836Z,95169.00
2024-04-30T02:39:29.929Z,95173.00
2024-04-30T02:40:30.024Z,95169.00
2024-04-30T02:41:30.116Z,95170.00
2024-04-30T02:42:30.222Z,95166.00
2024-04-30T02:43:30.392Z,95166.00
2024-04-30T02:44:30.414Z,95161.00
2024-04-30T02:45:30.470Z,95162.00
2024-04-30T02:46:30.661Z,95163.00
2024-04-30T02:47:30.743Z,95161.00
2024-04-30T02:48:30.748Z,95162.00
2024-04-30T02:49:30.910Z,95161.00
2024-04-30T02:50:30.885Z,95160.00
2024-04-30T02:51:30.956Z,95154.00
2024-04-30T02:52:31.190Z,95154.00
2024-04-30T02:53:31.097Z,95155.00
2024-04-30T02:54:31.169Z,95157.00
2024-04-30T02:55:31.329Z,95157.00
2024-04-30T02:56:31.303Z,95152.00
2024-04-30T02:57:31.373Z,95155.00
2024-04-30T02:58:31.594Z,95159.00
2024-04-30T02:59:31.528Z,95159.00
2024-04-30T03:00:31.692Z,95157.00
2024-04-30T03:01:31.696Z,95159.00
2024-04-30T03:02:31.733Z,95162.00
2024-04-30T03:03:31.851Z,95161.00
2024-04-30T03:04:31.901Z,95159.00
2024-04-30T03:05:31.903Z,95156.00
2024-04-30T03:06:31.984Z,95160.00
2024-04-30T03:07:32.192Z,95158.00
2024-04-30T03:08:32.133Z,95157.00
2024-04-30T03:09:32.199Z,95150.00
2024-04-30T03:10:32.346Z,95147.00
2024-04-30T03:11:32.432Z,95152.00
2024-04-30T03:12:32.349Z,95148.00
2024-04-30T03:13:32.475Z,95153.00
2024-04-30T03:14:32.538Z,95153.00
2024-04-30T03:15:32.582Z,95153.00
2024-04-30T03:16:32.792Z,95153.00
2024-04-30T03:17:32.785Z,95151.00
2024-04-30T03:18:32.828Z,95150.00
2024-04-30T03:19:32.945Z,95150.00
2024-04-30T03:20:32.954Z,95152.00
2024-04-30T03:21:33.012Z,95149.00
2024-04-30T03:22:33.133Z,95151.00
2024-04-30T03:23:33.166Z,95151.00
2024-04-30T03:24:33.311Z,95151.00
2024-04-30T03:25:33.370Z,95152.00
2024-04-30T03:26:33.387Z,95149.00
2024-04-30T03:27:33.442Z,95148.00
2024-04-30T03:28:33.565Z,95151.00
2024-04-30T03:29:33.574Z,95153.00
2024-04-30T03:30:33.642Z,95152.00
2024-04-30T03:31:34.017Z,95157.00
2024-04-30T03:32:33.866Z,95159.00
2024-04-30T03:33:33.917Z,95159.00
2024-04-30T03:34:33.956Z,95157.00
2024-04-30T03:35:33.980Z,95154.00
2024-04-30T03:36:34.045Z,95147.00
2024-04-30T03:37:34.353Z,95155.00
2024-04-30T03:38:34.200Z,95157.00
2024-04-30T03:39:34.239Z,95152.00
2024-04-30T03:40:34.411Z,95161.00
2024-04-30T03:41:34.392Z,95163.00
2024-04-30T03:42:34.451Z,95161.00
2024-04-30T03:43:34.594Z,95165.00
2024-04-30T03:44:34.584Z,95166.00
2024-04-30T03:45:34.650Z,95165.00
2024-04-30T03:46:34.910Z,95169.00
2024-04-30T03:47:34.863Z,95167.00
2024-04-30T03:48:34.920Z,95163.00
2024-04-30T03:49:35.102Z,95161.00
2024-04-30T03:50:35.033Z,95167.00
2024-04-30T03:51:35.146Z,95168.00
2024-04-30T03:52:35.270Z,95164.00
2024-04-30T03:53:35.305Z,95164.00
2024-04-30T03:54:35.362Z,95164.00
2024-04-30T03:55:35.503Z,95166.00
2024-04-30T03:56:35.508Z,95167.00
2024-04-30T03:57:35.614Z,95170.00
2024-04-30T03:58:35.758Z,95167.00
2024-04-30T03:59:35.800Z,95162.00
2024-04-30T04:00:35.884Z,95165.00
2024-04-30T04:01:35.980Z,95164.00
2024-04-30T04:02:36.114Z,95159.00
2024-04-30T04:03:36.172Z,95164.00
2024-04-30T04:04:36.287Z,95168.00
2024-04-30T04:05:36.326Z,95164.00
2024-04-30T04:06:36.392Z,95165.00
2024-04-30T04:07:36.575Z,95162.00
2024-04-30T04:08:36.592Z,95160.00
2024-04-30T04:09:36.665Z,95159.00
2024-04-30T04:10:36.868Z,95157.00
2024-04-30T04:11:36.908Z,95155.00
2024-04-30T04:12:36.947Z,95160.00
2024-04-30T04:13:37.073Z,95162.00
2024-04-30T04:14:37.149Z,95168.00
2024-04-30T04:15:37.231Z,95163.00
2024-04-30T04:16:37.416Z,95162.00
2024-04-30T04:17:37.480Z,95165.00
2024-04-30T04:18:37.580Z,95165.00
2024-04-30T04:19:37.730Z,95166.00
2024-04-30T04:20:37.719Z,95163.00
2024-04-30T04:21:37.781Z,95161.00
2024-04-30T04:22:37.943Z,95165.00
2024-04-30T04:23:37.992Z,95165.00
2024-04-30T04:24:38.087Z,95166.00
2024-04-30T04:25:38.187Z,95164.00
2024-04-30T04:26:45.362Z,95164.00
2024-04-30T04:27:45.330Z,95161.00
2024-04-30T04:28:45.341Z,95159.00
2024-04-30T04:29:45.377Z,95166.00
2024-04-30T04:30:45.392Z,95162.00
2024-04-30T04:31:52.628Z,95159.00
2024-04-30T04:32:52.620Z,95163.00
2024-04-30T04:33:52.572Z,95165.00
2024-04-30T04:34:52.562Z,95165.00
2024-04-30T04:35:52.590Z,95168.00
2024-04-30T04:36:52.549Z,95168.00
2024-04-30T04:37:52.587Z,95165.00
2024-04-30T04:38:52.567Z,95166.00
2024-04-30T04:39:52.589Z,95165.00
2024-04-30T04:40:52.582Z,95167.00
2024-04-30T04:41:52.561Z,95166.00
2024-04-30T04:42:52.569Z,95171.00
2024-04-30T04:43:52.591Z,95174.00
2024-04-30T04:44:52.582Z,95174.00
2024-04-30T04:45:52.574Z,95173.00
2024-04-30T04:46:52.587Z,95171.00
2024-04-30T04:47:52.683Z,95170.00
2024-04-30T04:48:52.589Z,95170.00
2024-04-30T04:49:52.601Z,95173.00
2024-04-30T04:50:52.580Z,95170.00
2024-04-30T04:51:52.558Z,95171.00
2024-04-30T04:52:52.602Z,95173.00
2024-04-30T04:53:52.604Z,95174.00
2024-04-30T04:54:52.582Z,95174.00
2024-04-30T04:55:52.595Z,95173.00
2024-04-30T04:56:52.587Z,95177.00
2024-04-30T04:57:52.600Z,95176.00
2024-04-30T04:58:52.607Z,95177.00
2024-04-30T04:59:52.613Z,95175.00
2024-04-30T05:00:52.743Z,95175.00
2024-04-30T05:01:52.787Z,95178.00
2024-04-30T05:02:52.656Z,95177.00
2024-04-30T05:03:52.658Z,95174.00
2024-04-30T05:04:52.647Z,95172.00
2024-04-30T05:05:52.591Z,95170.00
2024-04-30T05:06:54.575Z,95171.00
2024-04-30T05:07:52.733Z,95168.00
2024-04-30T05:08:52.783Z,95174.00
2024-04-30T05:09:52.811Z,95174.00
2024-04-30T05:10:52.845Z,95178.00
2024-04-30T05:11:52.838Z,95181.00
2024-04-30T05:12:52.838Z,95179.00
2024-04-30T05:13:52.879Z,95181.00
2024-04-30T05:14:55.655Z,95180.00
2024-04-30T05:15:52.924Z,95180.00
2024-04-30T05:16:52.980Z,95180.00
2024-04-30T05:18:19.534Z,95184.00
2024-04-30T05:19:19.562Z,95185.00
2024-04-30T05:20:19.522Z,95182.00
2024-04-30T05:21:19.520Z,95181.00
2024-04-30T05:22:19.565Z,95181.00
2024-04-30T05:23:19.515Z,95180.00
2024-04-30T05:24:19.553Z,95180.00
2024-04-30T05:25:19.537Z,95181.00
2024-04-30T05:26:19.516Z,95180.00
2024-04-30T05:27:19.512Z,95177.00
2024-04-30T05:28:19.568Z,95175.00
2024-04-30T05:29:19.523Z,95173.00
2024-04-30T05:30:19.517Z,95173.00
2024-04-30T05:31:19.578Z,95176.00
2024-04-30T05:32:19.502Z,95176.00
2024-04-30T05:33:19.601Z,95173.00
2024-04-30T05:34:19.576Z,95167.00
2024-04-30T05:35:19.503Z,95164.00
2024-04-30T05:36:19.525Z,95163.00
2024-04-30T05:37:19.617Z,95161.00
2024-04-30T05:38:19.597Z,95161.00
2024-04-30T05:39:19.567Z,95163.00
2024-04-30T05:40:19.650Z,95162.00
2024-04-30T05:41:19.573Z,95156.00
2024-04-30T05:42:19.560Z,95156.00
2024-04-30T05:43:19.718Z,95152.00
2024-04-30T05:44:19.550Z,95149.00
2024-04-30T05:45:19.582Z,95143.00
2024-04-30T05:46:19.716Z,95140.00
2024-04-30T05:47:19.575Z,95141.00
2024-04-30T05:48:19.617Z,95143.00
2024-04-30T05:49:19.605Z,95143.00
2024-04-30T05:50:19.587Z,95143.00
2024-04-30T05:51:19.578Z,95141.00
2024-04-30T05:52:19.609Z,95138.00
2024-04-30T05:53:19.585Z,95134.00
2024-04-30T05:54:19.661Z,95132.00
2024-04-30T05:55:19.751Z,95130.00
2024-04-30T05:56:19.815Z,95131.00
2024-04-30T05:57:19.879Z,95140.00
2024-04-30T05:58:19.989Z,95146.00
2024-04-30T05:59:20.092Z,95147.00
2024-04-30T06:00:20.135Z,95145.00
2024-04-30T06:01:20.302Z,95142.00
2024-04-30T06:02:20.283Z,95143.00
2024-04-30T06:03:20.421Z,95144.00
2024-04-30T06:04:20.571Z,95142.00
2024-04-30T06:05:20.691Z,95142.00
2024-04-30T06:06:20.666Z,95141.00
2024-04-30T06:07:20.748Z,95141.00
2024-04-30T06:08:20.789Z,95144.00
2024-04-30T06:09:20.883Z,95149.00
2024-04-30T06:10:21.016Z,95148.00
2024-04-30T06:11:21.144Z,95150.00
2024-04-30T06:12:21.138Z,95146.00
2024-04-30T06:13:21.266Z,95144.00
2024-04-30T06:14:23.997Z,95148.00
2024-04-30T06:15:21.500Z,95148.00
2024-04-30T06:16:21.345Z,95151.00
2024-04-30T06:17:21.355Z,95152.00
2024-04-30T06:18:21.402Z,95150.00
2024-04-30T06:19:21.373Z,95148.00
2024-04-30T06:20:21.307Z,95155.00
2024-04-30T06:21:30.354Z,95159.00
2024-04-30T06:22:22.377Z,95153.00
2024-04-30T06:23:21.329Z,95148.00
2024-04-30T06:24:21.313Z,95142.00
2024-04-30T06:25:21.347Z,95146.00
2024-04-30T06:26:21.310Z,95153.00
2024-04-30T06:27:21.351Z,95158.00
2024-04-30T06:28:21.364Z,95155.00
2024-04-30T06:29:21.378Z,95149.00
2024-04-30T06:30:21.326Z,95139.00
2024-04-30T06:31:21.416Z,95139.00
2024-04-30T06:32:21.322Z,95138.00
2024-04-30T06:33:21.463Z,95133.00
2024-04-30T06:34:21.460Z,95131.00
2024-04-30T06:35:21.506Z,95136.00
2024-04-30T06:36:21.612Z,95137.00
2024-04-30T06:37:21.707Z,95142.00
2024-04-30T06:38:21.737Z,95141.00
2024-04-30T06:39:21.842Z,95139.00
2024-04-30T06:40:23.389Z,95139.00
2024-04-30T06:41:21.902Z,95135.00
2024-04-30T06:42:21.904Z,95131.00
2024-04-30T06:43:21.941Z,95134.00
2024-04-30T06:44:21.971Z,95141.00
2024-04-30T06:45:22.023Z,95144.00
2024-04-30T06:46:21.953Z,95140.00
2024-04-30T06:47:22.010Z,95138.00
2024-04-30T06:48:22.002Z,95130.00
2024-04-30T06:49:24.124Z,95125.00
2024-04-30T06:50:21.946Z,95127.00
2024-04-30T06:51:21.966Z,95128.00
2024-04-30T06:52:21.958Z,95124.00
2024-04-30T06:53:21.931Z,95121.00
2024-04-30T06:54:21.975Z,95119.00
2024-04-30T06:55:21.997Z,95121.00
2024-04-30T06:56:21.958Z,95123.00
2024-04-30T06:57:22.010Z,95119.00
2024-04-30T06:58:21.972Z,95118.00
2024-04-30T06:59:21.972Z,95116.00
2024-04-30T07:00:21.970Z,95116.00
2024-04-30T07:01:22.021Z,95119.00
2024-04-30T07:02:21.967Z,95115.00
2024-04-30T07:03:21.941Z,95108.00
2024-04-30T07:04:22.027Z,95107.00
2024-04-30T07:05:22.020Z,95101.00
2024-04-30T07:06:21.963Z,95097.00
2024-04-30T07:07:21.977Z,95095.00
2024-04-30T07:08:21.969Z,95084.00
2024-04-30T07:09:21.986Z,95082.00
2024-04-30T07:10:22.016Z,95077.00
2024-04-30T07:11:21.990Z,95081.00
2024-04-30T07:12:21.969Z,95083.00
2024-04-30T07:13:21.990Z,95084.00
2024-04-30T07:14:22.016Z,95080.00
2024-04-30T07:15:21.970Z,95078.00
2024-04-30T07:16:22.006Z,95082.00
2024-04-30T07:17:22.050Z,95086.00
2024-04-30T07:18:22.028Z,95086.00
2024-04-30T07:19:22.024Z,95084.00
2024-04-30T07:20:21.980Z,95082.00
2024-04-30T07:21:21.962Z,95076.00
2024-04-30T07:22:22.036Z,95070.00
2024-04-30T07:23:21.975Z,95069.00
2024-04-30T07:24:22.038Z,95066.00
2024-04-30T07:25:22.013Z,95064.00
2024-04-30T07:26:21.992Z,95066.00
2024-04-30T07:27:22.084Z,95069.00
2024-04-30T07:28:22.202Z,95076.00
2024-04-30T07:29:22.221Z,95069.00
2024-04-30T07:30:22.264Z,95060.00
2024-04-30T07:31:22.408Z,95058.00
2024-04-30T07:32:22.507Z,95058.00
2024-04-30T07:33:22.586Z,95049.00
2024-04-30T07:34:22.818Z,95060.00
2024-04-30T07:35:22.716Z,95063.00
2024-04-30T07:36:22.779Z,95056.00
2024-04-30T07:37:22.908Z,95052.00
2024-04-30T07:38:22.879Z,95057.00
2024-04-30T07:39:22.983Z,95054.00
2024-04-30T07:40:23.087Z,95055.00
2024-04-30T07:41:23.105Z,95058.00
2024-04-30T07:42:23.143Z,95055.00
2024-04-30T07:43:23.263Z,95051.00
2024-04-30T07:44:23.257Z,95046.00
2024-04-30T07:45:23.319Z,95048.00
2024-04-30T07:46:23.435Z,95050.00
2024-04-30T07:47:23.582Z,95052.00
2024-04-30T07:48:23.746Z,95050.00
2024-04-30T07:49:23.644Z,95051.00
2024-04-30T07:50:23.664Z,95047.00
2024-04-30T07:51:23.713Z,95050.00
2024-04-30T07:52:23.833Z,95049.00
2024-04-30T07:53:23.863Z,95045.00
2024-04-30T07:54:23.990Z,95043.00
2024-04-30T07:55:24.050Z,95042.00
2024-04-30T07:56:24.106Z,95036.00
2024-04-30T07:57:24.201Z,95039.00
2024-04-30T07:58:24.293Z,95039.00
2024-04-30T07:59:24.349Z,95046.00
2024-04-30T08:00:24.439Z,95048.00
2024-04-30T08:01:24.609Z,95060.00
2024-04-30T08:02:24.709Z,95058.00
2024-04-30T08:03:24.782Z,95049.00
2024-04-30T08:04:24.840Z,95034.00
2024-04-30T08:05:24.891Z,95036.00
2024-04-30T08:06:25.004Z,95031.00
2024-04-30T08:07:25.090Z,95032.00
2024-04-30T08:08:25.179Z,95034.00
2024-04-30T08:09:25.268Z,95036.00
2024-04-30T08:10:25.365Z,95036.00
2024-04-30T08:11:25.433Z,95038.00
2024-04-30T08:12:25.542Z,95046.00
2024-04-30T08:13:25.667Z,95044.00
2024-04-30T08:14:25.778Z,95025.00
2024-04-30T08:15:25.837Z,95042.00
2024-04-30T08:16:25.978Z,95044.00
2024-04-30T08:17:26.128Z,95040.00
2024-04-30T08:18:26.121Z,95040.00
2024-04-30T08:19:26.261Z,95001.00
2024-04-30T08:20:26.321Z,95022.00
2024-04-30T08:21:26.482Z,95020.00
2024-04-30T08:22:26.580Z,95013.00
2024-04-30T08:23:26.594Z,95020.00
2024-04-30T08:24:26.745Z,95022.00
2024-04-30T08:25:26.814Z,95013.00
2024-04-30T08:26:26.912Z,95030.00
2024-04-30T08:27:27.423Z,95021.00
2024-04-30T08:28:27.113Z,95018.00
2024-04-30T08:29:27.230Z,95008.00
2024-04-30T08:30:27.305Z,95025.00
2024-04-30T08:31:27.447Z,95008.00
2024-04-30T08:32:27.599Z,95014.00
2024-04-30T08:33:27.632Z,95002.00
2024-04-30T08:34:27.726Z,95000.00
2024-04-30T08:35:27.806Z,94993.00
2024-04-30T08:36:30.367Z,95001.00
2024-04-30T08:38:27.942Z,95007.00
2024-04-30T08:39:27.981Z,95006.00
2024-04-30T08:40:27.959Z,95006.00
2024-04-30T08:41:27.992Z,94997.00
2024-04-30T08:42:27.942Z,95004.00
2024-04-30T08:43:28.004Z,95010.00
2024-04-30T08:44:27.926Z,95011.00
2024-04-30T08:45:27.907Z,95013.00
2024-04-30T08:46:27.980Z,95019.00
2024-04-30T08:47:28.018Z,95015.00
2024-04-30T08:48:27.914Z,95032.00
2024-04-30T08:49:33.967Z,95028.00
2024-04-30T08:50:29.036Z,95028.00
2024-04-30T08:51:27.920Z,95017.00
2024-04-30T08:52:28.002Z,95018.00
2024-04-30T08:53:27.934Z,95007.00
2024-04-30T08:54:27.929Z,95004.00
2024-04-30T08:55:27.964Z,95004.00
2024-04-30T08:56:27.933Z,95003.00
2024-04-30T08:57:27.929Z,95010.00
2024-04-30T08:58:27.995Z,95015.00
2024-04-30T08:59:27.965Z,94993.00
2024-04-30T09:00:27.961Z,95007.00
2024-04-30T09:01:27.958Z,95006.00
2024-04-30T09:02:27.971Z,95013.00
2024-04-30T09:03:28.009Z,95006.00
2024-04-30T09:04:28.053Z,95026.00
2024-04-30T09:05:27.995Z,95009.00
2024-04-30T09:06:28.106Z,94998.00
2024-04-30T09:07:28.208Z,95005.00
2024-04-30T09:08:28.218Z,95003.00
2024-04-30T09:09:28.290Z,95013.00
2024-04-30T09:10:28.369Z,95016.00
2024-04-30T09:11:28.497Z,94987.00
2024-04-30T09:12:28.473Z,94995.00
2024-04-30T09:13:28.602Z,95010.00
2024-04-30T09:14:28.635Z,95001.00
2024-04-30T09:15:28.682Z,94999.00
2024-04-30T09:16:28.734Z,95010.00
2024-04-30T09:17:29.042Z,95015.00
2024-04-30T09:18:28.956Z,95002.00
2024-04-30T09:19:28.967Z,95011.00
2024-04-30T09:20:28.972Z,94999.00
2024-04-30T09:21:29.066Z,94997.00
2024-04-30T09:22:29.215Z,94998.00
2024-04-30T09:23:29.262Z,94987.00
2024-04-30T09:24:29.286Z,94998.00
2024-04-30T09:25:29.422Z,94985.00
2024-04-30T09:26:29.431Z,94988.00
2024-04-30T09:27:29.509Z,94997.00
2024-04-30T09:28:29.598Z,94996.00
2024-04-30T09:29:29.697Z,94992.00
2024-04-30T09:30:29.772Z,94973.00
2024-04-30T09:31:29.842Z,94984.00
2024-04-30T09:32:30.033Z,94984.00
2024-04-30T09:33:30.250Z,94992.00
2024-04-30T09:34:30.151Z,94989.00
2024-04-30T09:35:30.244Z,94986.00
2024-04-30T09:36:30.344Z,94986.00
2024-04-30T09:37:30.496Z,94990.00
2024-04-30T09:38:30.576Z,94995.00
2024-04-30T09:39:30.680Z,94988.00
2024-04-30T09:40:30.873Z,94982.00
2024-04-30T09:41:30.871Z,94989.00
2024-04-30T09:42:30.973Z,94982.00
2024-04-30T09:43:31.178Z,94974.00
2024-04-30T09:44:31.240Z,94970.00
2024-04-30T09:45:31.292Z,94983.00
2024-04-30T09:46:31.539Z,94989.00
2024-04-30T09:47:31.591Z,94991.00
2024-04-30T09:48:31.658Z,94987.00
2024-04-30T09:49:31.824Z,94982.00
2024-04-30T09:50:31.892Z,94973.00
2024-04-30T09:51:31.992Z,94985.00
2024-04-30T09:52:32.181Z,94974.00
2024-04-30T09:53:32.266Z,94980.00
2024-04-30T09:54:32.387Z,94977.00
2024-04-30T09:55:32.505Z,94979.00
2024-04-30T09:56:32.562Z,94978.00
2024-04-30T09:57:32.694Z,94977.00
2024-04-30T09:58:32.899Z,94981.00
2024-04-30T09:59:33.053Z,94984.00
2024-04-30T10:00:33.239Z,94979.00
2024-04-30T10:01:33.270Z,94977.00
2024-04-30T10:02:33.331Z,94972.00
2024-04-30T10:03:33.428Z,94954.00
2024-04-30T10:04:33.636Z,94955.00
2024-04-30T10:05:33.642Z,94951.00
2024-04-30T10:06:33.791Z,94961.00
2024-04-30T10:07:33.971Z,94955.00
2024-04-30T10:08:33.992Z,94957.00
2024-04-30T10:09:34.145Z,94964.00
2024-04-30T10:10:34.422Z,94961.00
2024-04-30T10:11:34.393Z,94960.00
2024-04-30T10:12:34.443Z,94963.00
2024-04-30T10:13:34.561Z,94958.00
2024-04-30T10:14:34.690Z,94955.00
2024-04-30T10:15:34.756Z,94966.00
2024-04-30T10:16:34.933Z,94955.00
2024-04-30T10:17:35.093Z,94947.00
2024-04-30T10:18:35.135Z,94951.00
2024-04-30T10:19:35.261Z,94953.00
2024-04-30T10:20:35.302Z,94955.00
2024-04-30T10:21:35.399Z,94950.00
2024-04-30T10:22:35.579Z,94935.00
2024-04-30T10:23:35.599Z,94931.00
2024-04-30T10:24:35.735Z,94931.00
2024-04-30T10:25:35.890Z,94932.00
2024-04-30T10:26:35.891Z,94938.00
2024-04-30T10:27:36.007Z,94939.00
2024-04-30T10:28:36.153Z,94939.00
2024-04-30T10:29:36.197Z,94932.00
2024-04-30T10:30:36.341Z,94932.00
2024-04-30T10:31:36.407Z,94926.00
2024-04-30T10:32:36.506Z,94920.00
2024-04-30T10:33:36.631Z,94924.00
2024-04-30T10:34:36.693Z,94917.00
2024-04-30T10:35:36.753Z,94923.00
2024-04-30T10:36:36.838Z,94926.00
2024-04-30T10:37:37.123Z,94918.00
2024-04-30T10:38:37.024Z,94926.00
2024-04-30T10:39:37.124Z,94924.00
2024-04-30T10:40:37.227Z,94920.00
2024-04-30T10:41:37.279Z,94913.00
2024-04-30T10:42:37.443Z,94905.00
2024-04-30T10:43:37.491Z,94896.00
2024-04-30T10:44:37.550Z,94900.00
2024-04-30T10:45:37.672Z,94912.00
2024-04-30T10:46:37.823Z,94904.00
2024-04-30T10:47:37.966Z,94902.00
2024-04-30T10:48:38.064Z,94899.00
2024-04-30T10:49:38.230Z,94908.00
2024-04-30T10:50:38.256Z,94907.00
2024-04-30T10:51:38.370Z,94909.00
2024-04-30T10:52:38.522Z,94909.00
2024-04-30T10:53:38.601Z,94911.00
2024-04-30T10:54:38.718Z,94908.00
2024-04-30T10:55:38.893Z,94908.00
2024-04-30T10:56:39.028Z,94907.00
2024-04-30T10:57:39.143Z,94890.00
2024-04-30T10:58:39.262Z,94894.00
2024-04-30T10:59:39.357Z,94887.00
2024-04-30T11:00:39.506Z,94892.00
2024-04-30T11:01:39.675Z,94891.00
2024-04-30T11:02:39.774Z,94893.00
2024-04-30T11:03:39.834Z,94891.00
2024-04-30T11:04:40.091Z,94891.00
2024-04-30T11:05:40.817Z,94887.00
2024-04-30T11:06:40.108Z,94892.00
2024-04-30T11:07:40.272Z,94881.00
2024-04-30T11:08:40.162Z,94884.00
2024-04-30T11:09:40.200Z,94881.00
2024-04-30T11:10:40.266Z,94878.00
2024-04-30T11:11:40.291Z,94883.00
2024-04-30T11:12:40.302Z,94879.00
2024-04-30T11:13:40.380Z,94875.00
2024-04-30T11:14:40.433Z,94877.00
2024-04-30T11:15:40.514Z,94871.00
2024-04-30T11:16:40.676Z,94875.00
2024-04-30T11:17:40.792Z,94890.00
2024-04-30T11:18:40.891Z,94885.00
2024-04-30T11:19:41.053Z,94884.00
2024-04-30T11:20:41.092Z,94878.00
2024-04-30T11:21:41.190Z,94878.00
2024-04-30T11:22:42.342Z,94879.00
2024-04-30T11:23:41.435Z,94878.00
2024-04-30T11:24:41.554Z,94868.00
2024-04-30T11:25:41.710Z,94870.00
2024-04-30T11:26:41.762Z,94853.00
2024-04-30T11:27:41.844Z,94863.00
2024-04-30T11:28:46.536Z,94859.00
2024-04-30T11:29:43.080Z,94865.00
2024-04-30T11:30:42.003Z,94861.00
2024-04-30T11:31:42.046Z,94860.00
2024-04-30T11:32:42.096Z,94861.00
2024-04-30T11:33:42.050Z,94858.00
2024-04-30T11:34:42.058Z,94861.00
2024-04-30T11:35:41.988Z,94858.00
2024-04-30T11:36:42.010Z,94854.00
2024-04-30T11:37:42.215Z,94858.00
2024-04-30T11:38:42.053Z,94858.00
2024-04-30T11:39:42.082Z,94856.00
2024-04-30T11:40:42.124Z,94855.00
2024-04-30T11:41:48.714Z,94856.00
2024-04-30T11:42:45.176Z,94852.00
2024-04-30T11:43:42.063Z,94854.00
2024-04-30T11:44:42.011Z,94844.00
2024-04-30T11:45:42.019Z,94835.00
2024-04-30T11:46:42.134Z,94837.00